Time;durP1;ratioP1;P1;durP2;ratioP2;P2;SDS_P1;SDS_P2;PMS_P1;PMS_P2;Temp;Humidity;BMP_temperature;BMP_pressure;BME280_temperature;BME280_humidity;BME280_pressure;Samples;Min_cycle;Max_cycle;Signal;HPM_P1;HPM_P2
2022/02/07 00:02:03;;;;;;;18.05;9.32;;;;;;;;;;5088553;28;20102;-68
2022/02/07 00:04:34;;;;;;;19.40;10.60;;;;;;;;;;5084933;28;20495;-68
2022/02/07 00:07:00;;;;;;;20.15;10.23;;;;;;;;;;5085094;28;20028;-68
2022/02/07 00:09:26;;;;;;;16.50;10.27;;;;;;;;;;5084510;28;20032;-68
2022/02/07 00:11:52;;;;;;;19.35;10.30;;;;;;;;;;5086071;28;20029;-69
2022/02/07 00:14:19;;;;;;;19.80;9.95;;;;;;;;;;5091919;28;20055;-69
2022/02/07 00:16:45;;;;;;;17.63;9.45;;;;;;;;;;5084822;28;20032;-68
2022/02/07 00:19:17;;;;;;;17.17;9.70;;;;;;;;;;5084445;28;20024;-68
2022/02/07 00:21:45;;;;;;;18.90;8.85;;;;;;;;;;5084360;28;20409;-68
2022/02/07 00:24:11;;;;;;;17.17;8.80;;;;;;;;;;5084220;28;20049;-69
2022/02/07 00:26:37;;;;;;;13.85;8.50;;;;;;;;;;5089825;28;20020;-68
2022/02/07 00:29:03;;;;;;;15.13;8.98;;;;;;;;;;5087653;28;20047;-69
2022/02/07 00:31:29;;;;;;;18.20;9.40;;;;;;;;;;5084358;28;20027;-68
2022/02/07 00:33:55;;;;;;;17.70;9.30;;;;;;;;;;5079665;28;20021;-68
2022/02/07 00:36:21;;;;;;;18.48;10.00;;;;;;;;;;5069855;28;20036;-69
2022/02/07 00:38:51;;;;;;;19.02;10.48;;;;;;;;;;5085925;28;20104;-69
2022/02/07 00:41:24;;;;;;;16.52;9.05;;;;;;;;;;5090943;28;20036;-69
2022/02/07 00:43:57;;;;;;;18.63;9.85;;;;;;;;;;5083605;28;20039;-69
2022/02/07 00:46:32;;;;;;;15.38;9.05;;;;;;;;;;5083951;28;20028;-69
2022/02/07 00:48:58;;;;;;;17.83;8.20;;;;;;;;;;5083778;28;20067;-69
2022/02/07 00:51:24;;;;;;;16.55;8.13;;;;;;;;;;5084304;28;20028;-70
2022/02/07 00:53:50;;;;;;;19.90;10.38;;;;;;;;;;5086113;28;20017;-69
2022/02/07 00:56:16;;;;;;;16.75;10.15;;;;;;;;;;5090486;28;20051;-69
2022/02/07 00:58:42;;;;;;;19.58;9.85;;;;;;;;;;5083616;28;20062;-69
2022/02/07 01:01:09;;;;;;;18.13;10.38;;;;;;;;;;5083317;28;20064;-69
2022/02/07 01:03:35;;;;;;;18.95;10.48;;;;;;;;;;5084020;28;20032;-69
2022/02/07 01:06:01;;;;;;;16.05;10.05;;;;;;;;;;5083740;28;20238;-70
2022/02/07 01:08:42;;;;;;;19.88;10.52;;;;;;;;;;5090985;28;20227;-69
2022/02/07 01:11:15;;;;;;;14.07;8.40;;;;;;;;;;5087514;28;20040;-69
2022/02/07 01:52:21;;;;;;;14.10;7.93;;;;;;;;;;5077759;28;20033;-68
2022/02/07 01:54:27;;;;;;;13.70;6.75;;;;;;;;;;5078613;28;20063;-69
2022/02/07 01:56:53;;;;;;;11.35;6.25;;;;;;;;;;5083987;28;20029;-69
2022/02/07 01:59:19;;;;;;;12.70;6.78;;;;;;;;;;5090359;28;20028;-69
2022/02/07 02:01:45;;;;;;;14.10;6.40;;;;;;;;;;5082313;28;20047;-68
2022/02/07 02:04:11;;;;;;;14.50;8.00;;;;;;;;;;5082621;28;20021;-69
2022/02/07 02:06:38;;;;;;;13.20;7.80;;;;;;;;;;5082847;28;20121;-69
2022/02/07 02:09:05;;;;;;;18.17;10.25;;;;;;;;;;5082568;28;20036;-69
2022/02/07 02:11:33;;;;;;;16.80;9.52;;;;;;;;;;5089372;28;20438;-69
2022/02/07 02:16:39;;;;;;;17.50;9.75;;;;;;;;;;5083094;28;20036;-69
2022/02/07 02:46:45;;;;;;;13.68;8.15;;;;;;;;;;5082959;28;20066;-68
2022/02/07 02:49:12;;;;;;;14.32;8.10;;;;;;;;;;5081965;28;20047;-68
2022/02/07 02:51:38;;;;;;;16.70;8.40;;;;;;;;;;5082695;28;20020;-68
2022/02/07 02:54:05;;;;;;;11.60;6.28;;;;;;;;;;5082153;28;20032;-68
2022/02/07 02:56:32;;;;;;;13.95;7.10;;;;;;;;;;5088670;28;20024;-68
2022/02/07 02:58:58;;;;;;;12.82;6.85;;;;;;;;;;5084285;28;20600;-68
2022/02/07 03:01:24;;;;;;;16.50;8.25;;;;;;;;;;5082750;28;20024;-69
2022/02/07 03:03:50;;;;;;;14.20;8.57;;;;;;;;;;5081691;28;20039;-69
2022/02/07 03:06:16;;;;;;;13.52;8.38;;;;;;;;;;5082357;28;20052;-69
2022/02/07 03:08:43;;;;;;;12.10;6.35;;;;;;;;;;5089258;28;20108;-69
2022/02/07 03:11:13;;;;;;;11.77;5.80;;;;;;;;;;5076956;28;20475;-70
2022/02/07 03:13:50;;;;;;;14.20;8.85;;;;;;;;;;5084344;28;20028;-69
2022/02/07 03:19:01;;;;;;;15.90;8.45;;;;;;;;;;5085614;28;20043;-69
2022/02/07 03:21:27;;;;;;;15.25;8.48;;;;;;;;;;5085596;28;20414;-69
2022/02/07 03:23:54;;;;;;;16.83;8.35;;;;;;;;;;5086963;28;20108;-69
2022/02/07 03:26:20;;;;;;;18.35;8.07;;;;;;;;;;5091222;28;20032;-69
2022/02/07 03:28:50;;;;;;;13.60;7.20;;;;;;;;;;5084025;28;20115;-68
2022/02/07 03:31:17;;;;;;;17.17;7.57;;;;;;;;;;5083432;28;20053;-68
2022/02/07 03:33:43;;;;;;;13.95;7.90;;;;;;;;;;5083979;28;20024;-68
2022/02/07 03:36:10;;;;;;;16.45;8.15;;;;;;;;;;5084175;28;20033;-68
2022/02/07 03:38:36;;;;;;;14.30;7.45;;;;;;;;;;5089138;28;20020;-69
2022/02/07 03:41:02;;;;;;;13.73;6.78;;;;;;;;;;5087654;28;20039;-70
2022/02/07 03:43:28;;;;;;;13.18;6.90;;;;;;;;;;5087102;28;20391;-69
2022/02/07 03:45:54;;;;;;;13.65;6.95;;;;;;;;;;5085198;28;20347;-69
2022/02/07 03:48:20;;;;;;;12.50;6.25;;;;;;;;;;5085035;28;20103;-69
2022/02/07 03:50:46;;;;;;;12.75;6.53;;;;;;;;;;5089156;28;20027;-68
2022/02/07 03:53:12;;;;;;;13.35;6.72;;;;;;;;;;5090118;28;20032;-69
2022/02/07 03:55:39;;;;;;;13.20;7.30;;;;;;;;;;5084994;28;20055;-70
2022/02/07 03:58:05;;;;;;;14.85;7.57;;;;;;;;;;5084807;28;20490;-68
2022/02/07 04:00:33;;;;;;;13.23;6.93;;;;;;;;;;5084989;28;20107;-68
2022/02/07 04:03:03;;;;;;;6.40;2.60;;;;;;;;;;5085254;28;20028;-69
2022/02/07 04:08:09;;;;;;;13.60;7.90;;;;;;;;;;5080842;28;20096;-69
2022/02/07 04:10:44;;;;;;;15.25;8.48;;;;;;;;;;5074573;28;20108;-67
2022/02/07 04:13:12;;;;;;;16.60;8.50;;;;;;;;;;5067667;28;20040;-68
2022/02/07 04:15:38;;;;;;;15.07;7.70;;;;;;;;;;5069719;28;20035;-68
2022/02/07 04:18:09;;;;;;;14.80;7.53;;;;;;;;;;5069743;28;20020;-68
2022/02/07 04:20:37;;;;;;;13.02;7.25;;;;;;;;;;5070292;28;20033;-69
2022/02/07 04:23:03;;;;;;;14.85;7.20;;;;;;;;;;5071578;28;20430;-68
2022/02/07 04:25:29;;;;;;;11.00;6.00;;;;;;;;;;5070092;28;20391;-69
2022/02/07 04:27:55;;;;;;;14.07;6.90;;;;;;;;;;5070421;28;20024;-68
2022/02/07 04:30:21;;;;;;;10.07;5.28;;;;;;;;;;5070243;28;20064;-68
2022/02/07 04:32:47;;;;;;;12.55;6.70;;;;;;;;;;5070264;28;20820;-68
2022/02/07 04:35:14;;;;;;;9.23;5.97;;;;;;;;;;5071882;28;20075;-68
2022/02/07 04:37:40;;;;;;;10.95;6.47;;;;;;;;;;5070284;28;20021;-68
2022/02/07 04:40:06;;;;;;;8.18;4.75;;;;;;;;;;5070096;28;20024;-71
2022/02/07 04:42:32;;;;;;;5.85;3.13;;;;;;;;;;5070296;28;20060;-70
2022/02/07 04:55:42;;;;;;;9.75;4.28;;;;;;;;;;5073049;28;20043;-69
2022/02/07 04:58:27;;;;;;;8.98;4.13;;;;;;;;;;5075329;28;20023;-69
2022/02/07 05:01:22;;;;;;;8.63;3.03;;;;;;;;;;5081332;28;20105;-68
2022/02/07 05:03:54;;;;;;;5.80;2.92;;;;;;;;;;5072711;28;20120;-69
2022/02/07 05:14:35;;;;;;;8.27;4.57;;;;;;;;;;5072895;28;20040;-66
2022/02/07 05:17:06;;;;;;;8.25;3.83;;;;;;;;;;5074456;28;20553;-66
2022/02/07 05:19:32;;;;;;;3.75;1.83;;;;;;;;;;5072807;28;20024;-66
2022/02/07 05:21:58;;;;;;;3.20;1.90;;;;;;;;;;5072447;28;20040;-66
2022/02/07 05:24:24;;;;;;;6.07;3.28;;;;;;;;;;5069872;28;20024;-66
2022/02/07 05:26:50;;;;;;;6.82;2.97;;;;;;;;;;5068970;28;20109;-68
2022/02/07 05:29:16;;;;;;;6.43;2.90;;;;;;;;;;5073635;28;20013;-68
2022/02/07 05:31:42;;;;;;;5.38;2.20;;;;;;;;;;5071996;28;20392;-66
2022/02/07 05:34:08;;;;;;;4.18;2.05;;;;;;;;;;5072622;28;20028;-66
2022/02/07 05:36:41;;;;;;;3.28;1.55;;;;;;;;;;5070550;28;20028;-66
2022/02/07 05:39:07;;;;;;;4.82;1.73;;;;;;;;;;5070901;28;20556;-66
2022/02/07 05:41:33;;;;;;;7.43;3.95;;;;;;;;;;5072501;28;20028;-67
2022/02/07 05:44:00;;;;;;;6.53;3.78;;;;;;;;;;5073206;28;20405;-66
2022/02/07 05:46:26;;;;;;;5.28;3.10;;;;;;;;;;5072728;28;20166;-66
2022/02/07 05:48:52;;;;;;;3.17;1.83;;;;;;;;;;5072118;28;20474;-66
2022/02/07 05:51:18;;;;;;;2.97;1.38;;;;;;;;;;5070264;28;20040;-67
2022/02/07 05:53:44;;;;;;;4.15;2.47;;;;;;;;;;5071125;28;20143;-66
2022/02/07 05:56:10;;;;;;;5.22;2.30;;;;;;;;;;5074162;28;20016;-67
2022/02/07 05:58:36;;;;;;;6.90;3.38;;;;;;;;;;5071990;28;20077;-66
2022/02/07 06:01:02;;;;;;;3.67;2.03;;;;;;;;;;5075520;28;20506;-68
2022/02/07 06:03:28;;;;;;;5.30;1.60;;;;;;;;;;5083366;28;20072;-68
2022/02/07 06:05:54;;;;;;;3.03;1.52;;;;;;;;;;5078470;28;20040;-69
2022/02/07 06:08:20;;;;;;;1.83;1.10;;;;;;;;;;5072787;28;20116;-68
2022/02/07 06:10:47;;;;;;;3.10;1.40;;;;;;;;;;5072235;28;20504;-68
2022/02/07 06:13:14;;;;;;;1.40;1.08;;;;;;;;;;5071994;28;20021;-68
2022/02/07 06:15:40;;;;;;;1.80;1.15;;;;;;;;;;5071165;28;20025;-69
2022/02/07 06:18:06;;;;;;;3.97;1.95;;;;;;;;;;5070245;28;20020;-68
2022/02/07 06:20:32;;;;;;;2.70;1.92;;;;;;;;;;5071790;28;20033;-68
2022/02/07 06:22:58;;;;;;;4.03;1.98;;;;;;;;;;5084797;28;20107;-68
2022/02/07 06:25:24;;;;;;;2.58;1.23;;;;;;;;;;5082271;28;20024;-68
2022/02/07 06:27:52;;;;;;;3.50;1.60;;;;;;;;;;5082510;28;20032;-68
2022/02/07 06:30:18;;;;;;;2.33;1.40;;;;;;;;;;5082818;28;20014;-68
2022/02/07 06:32:43;;;;;;;2.80;1.45;;;;;;;;;;5086582;28;20261;-68
2022/02/07 06:35:10;;;;;;;3.25;1.50;;;;;;;;;;5086558;28;20063;-67
2022/02/07 06:37:36;;;;;;;0.82;0.60;;;;;;;;;;5082707;28;20600;-68
2022/02/07 06:40:02;;;;;;;3.47;1.48;;;;;;;;;;5082035;28;20052;-68
2022/02/07 06:42:28;;;;;;;1.98;1.27;;;;;;;;;;5083750;28;20031;-67
2022/02/07 06:44:54;;;;;;;0.10;0.10;;;;;;;;;;5079122;28;20114;-69
2022/02/07 06:47:20;;;;;;;0.10;0.10;;;;;;;;;;5093276;28;20051;-65
2022/02/07 06:49:46;;;;;;;0.10;0.00;;;;;;;;;;5074356;28;20070;-65
2022/02/07 06:52:12;;;;;;;0.00;0.00;;;;;;;;;;5074037;28;20028;-64
2022/02/07 06:54:38;;;;;;;0.00;0.00;;;;;;;;;;5073303;28;20099;-65
2022/02/07 06:57:04;;;;;;;0.60;0.10;;;;;;;;;;5073256;28;20055;-65
2022/02/07 06:59:35;;;;;;;0.35;0.10;;;;;;;;;;5074128;28;20051;-71
2022/02/07 07:02:01;;;;;;;0.00;0.00;;;;;;;;;;5074640;28;20039;-67
2022/02/07 07:04:29;;;;;;;0.65;0.10;;;;;;;;;;5073914;28;20024;-60
2022/02/07 07:06:55;;;;;;;0.10;0.00;;;;;;;;;;5072850;28;20025;-63
2022/02/07 07:09:21;;;;;;;1.17;0.10;;;;;;;;;;5072689;28;20264;-60
2022/02/07 07:11:47;;;;;;;0.00;0.00;;;;;;;;;;5072614;28;20020;-60
2022/02/07 07:14:41;;;;;;;0.50;0.30;;;;;;;;;;5074599;28;20027;-60
2022/02/07 07:17:02;;;;;;;0.00;0.00;;;;;;;;;;5073507;28;20036;-61
2022/02/07 07:19:29;;;;;;;0.40;0.15;;;;;;;;;;5073138;28;20111;-60
2022/02/07 07:21:55;;;;;;;0.10;0.10;;;;;;;;;;5072490;28;20064;-60
2022/02/07 07:24:21;;;;;;;0.10;0.03;;;;;;;;;;5072690;28;20470;-60
2022/02/07 07:26:47;;;;;;;0.50;0.13;;;;;;;;;;5071076;28;20041;-60
2022/02/07 07:29:18;;;;;;;0.55;0.22;;;;;;;;;;5074280;28;20024;-62
2022/02/07 07:31:49;;;;;;;0.30;0.10;;;;;;;;;;5072691;28;20581;-61
2022/02/07 07:34:17;;;;;;;2.58;0.30;;;;;;;;;;5072557;28;20036;-60
2022/02/07 07:36:47;;;;;;;0.43;0.10;;;;;;;;;;5072106;28;20173;-62
2022/02/07 07:39:13;;;;;;;0.35;0.10;;;;;;;;;;5072207;28;20103;-63
2022/02/07 07:41:41;;;;;;;0.28;0.10;;;;;;;;;;5071531;28;20039;-63
2022/02/07 07:44:07;;;;;;;0.95;0.10;;;;;;;;;;5073063;28;20089;-60
2022/02/07 07:46:34;;;;;;;0.55;0.00;;;;;;;;;;5072142;28;20024;-63
2022/02/07 07:49:11;;;;;;;1.25;0.10;;;;;;;;;;5072446;28;20381;-62
2022/02/07 07:51:55;;;;;;;0.10;0.10;;;;;;;;;;5071183;28;20116;-61
2022/02/07 07:54:42;;;;;;;0.50;0.30;;;;;;;;;;5069016;28;20494;-63
2022/02/07 08:02:37;;;;;;;0.10;0.10;;;;;;;;;;5074200;28;20089;-60
2022/02/07 08:05:11;;;;;;;0.10;0.10;;;;;;;;;;5075702;28;20029;-65
2022/02/07 08:07:39;;;;;;;1.35;0.20;;;;;;;;;;5072042;28;20028;-61
2022/02/07 08:10:40;;;;;;;0.15;0.00;;;;;;;;;;5074435;28;20426;-64
2022/02/07 08:12:55;;;;;;;0.08;0.08;;;;;;;;;;5074361;28;20587;-62
2022/02/07 08:15:21;;;;;;;0.20;0.10;;;;;;;;;;5071914;28;20028;-64
2022/02/07 08:17:47;;;;;;;0.63;0.20;;;;;;;;;;5072517;28;20434;-65
2022/02/07 08:20:13;;;;;;;0.00;0.00;;;;;;;;;;5076204;28;20070;-67
2022/02/07 08:22:39;;;;;;;0.30;0.20;;;;;;;;;;5073834;28;20040;-68
2022/02/07 08:25:06;;;;;;;0.40;0.17;;;;;;;;;;5074328;28;20364;-63
2022/02/07 08:27:32;;;;;;;0.10;0.10;;;;;;;;;;5072102;28;20523;-73
2022/02/07 08:29:59;;;;;;;0.52;0.20;;;;;;;;;;5074263;28;20025;-72
2022/02/07 08:32:26;;;;;;;0.50;0.20;;;;;;;;;;5076995;28;20017;-73
2022/02/07 08:34:53;;;;;;;1.27;0.20;;;;;;;;;;5083597;28;20131;-72
2022/02/07 08:37:19;;;;;;;0.45;0.10;;;;;;;;;;5083293;28;20024;-73
2022/02/07 08:39:45;;;;;;;0.35;0.10;;;;;;;;;;5083866;28;20035;-73
2022/02/07 08:42:11;;;;;;;0.52;0.10;;;;;;;;;;5083325;28;20040;-72
2022/02/07 08:44:37;;;;;;;0.20;0.10;;;;;;;;;;5085465;28;20024;-73
2022/02/07 08:47:04;;;;;;;0.47;0.20;;;;;;;;;;5089017;28;20035;-72
2022/02/07 08:49:30;;;;;;;0.17;0.10;;;;;;;;;;5080328;28;20100;-73
2022/02/07 08:51:57;;;;;;;1.08;0.20;;;;;;;;;;5083604;28;20031;-73
2022/02/07 08:54:26;;;;;;;0.08;0.08;;;;;;;;;;5083726;28;20502;-73
2022/02/07 08:56:58;;;;;;;2.22;0.15;;;;;;;;;;5084664;28;20070;-72
2022/02/07 08:59:32;;;;;;;0.43;0.28;;;;;;;;;;5082081;28;20019;-73
2022/02/07 09:07:32;;;;;;;1.38;0.25;;;;;;;;;;5069589;28;20035;-73
2022/02/07 09:09:58;;;;;;;0.30;0.10;;;;;;;;;;5083152;28;20031;-74
2022/02/07 09:12:24;;;;;;;0.10;0.03;;;;;;;;;;5081374;28;20387;-73
2022/02/07 09:15:01;;;;;;;0.20;0.20;;;;;;;;;;5084682;28;20748;-73
2022/02/07 09:17:27;;;;;;;0.28;0.20;;;;;;;;;;5078612;28;20398;-73
2022/02/07 09:19:53;;;;;;;0.88;0.15;;;;;;;;;;5082673;28;20032;-73
2022/02/07 09:22:19;;;;;;;0.15;0.10;;;;;;;;;;5083165;28;20051;-73
2022/02/07 09:24:45;;;;;;;1.08;0.10;;;;;;;;;;5083462;28;20095;-73
2022/02/07 09:27:11;;;;;;;0.08;0.08;;;;;;;;;;5083067;28;20544;-73
2022/02/07 09:29:37;;;;;;;2.22;0.10;;;;;;;;;;5087931;28;20127;-72
2022/02/07 09:32:03;;;;;;;0.22;0.10;;;;;;;;;;5085747;28;20028;-73
2022/02/07 09:34:30;;;;;;;1.67;0.20;;;;;;;;;;5081083;28;20028;-71
2022/02/07 09:36:56;;;;;;;0.60;0.20;;;;;;;;;;5083164;28;20431;-72
2022/02/07 09:39:30;;;;;;;0.35;0.10;;;;;;;;;;5082577;28;20454;-72
2022/02/07 09:41:57;;;;;;;0.25;0.10;;;;;;;;;;5058156;28;20535;-72
2022/02/07 09:44:23;;;;;;;0.10;0.10;;;;;;;;;;5089767;28;20032;-72
2022/02/07 09:46:49;;;;;;;0.80;0.25;;;;;;;;;;5081830;28;20036;-71
2022/02/07 09:49:18;;;;;;;0.52;0.20;;;;;;;;;;5082730;28;20023;-71
2022/02/07 09:51:45;;;;;;;0.50;0.20;;;;;;;;;;5081997;28;20487;-73
2022/02/07 09:54:15;;;;;;;1.23;0.10;;;;;;;;;;5082711;28;20055;-72
2022/02/07 09:56:41;;;;;;;0.82;0.20;;;;;;;;;;5088005;28;20056;-71
2022/02/07 09:59:08;;;;;;;0.28;0.00;;;;;;;;;;5085617;28;20024;-73
2022/02/07 10:01:37;;;;;;;0.32;0.00;;;;;;;;;;5083613;28;20123;-73
2022/02/07 10:04:12;;;;;;;0.30;0.10;;;;;;;;;;5081806;28;20043;-72
2022/02/07 10:07:04;;;;;;;0.95;0.25;;;;;;;;;;5082060;28;20499;-72
2022/02/07 10:12:07;;;;;;;0.30;0.10;;;;;;;;;;5083929;28;20024;-72
2022/02/07 10:37:46;;;;;;;1.00;0.15;;;;;;;;;;5082085;28;20085;-72
2022/02/07 10:39:57;;;;;;;0.10;0.05;;;;;;;;;;5080730;28;20047;-72
2022/02/07 10:45:04;;;;;;;0.40;0.20;;;;;;;;;;5076090;28;20033;-72
2022/02/07 10:47:44;;;;;;;0.30;0.10;;;;;;;;;;5096866;28;20020;-71
2022/02/07 10:50:11;;;;;;;0.20;0.10;;;;;;;;;;5085875;28;20035;-72
2022/02/07 10:52:54;;;;;;;0.13;0.13;;;;;;;;;;5078720;28;20043;-72
2022/02/07 10:55:20;;;;;;;0.50;0.13;;;;;;;;;;5070264;28;20071;-71
2022/02/07 10:57:47;;;;;;;0.15;0.10;;;;;;;;;;5071169;28;20032;-72
2022/02/07 11:00:14;;;;;;;2.05;0.10;;;;;;;;;;5069966;28;20079;-73
2022/02/07 11:02:52;;;;;;;0.13;0.03;;;;;;;;;;5069841;28;20024;-71
2022/02/07 11:05:19;;;;;;;1.48;0.30;;;;;;;;;;5072663;28;20036;-71
2022/02/07 11:07:45;;;;;;;1.02;0.20;;;;;;;;;;5071755;28;20020;-72
2022/02/07 11:10:34;;;;;;;0.35;0.20;;;;;;;;;;5069158;28;20013;-71
2022/02/07 11:16:04;;;;;;;0.70;0.20;;;;;;;;;;5048282;28;20497;-71
2022/02/07 11:21:39;;;;;;;0.43;0.10;;;;;;;;;;5068369;28;20052;-73
2022/02/07 11:24:51;;;;;;;0.50;0.28;;;;;;;;;;5067421;28;20020;-71
2022/02/07 11:27:28;;;;;;;0.20;0.10;;;;;;;;;;5067735;28;20017;-71
2022/02/07 11:29:55;;;;;;;0.70;0.20;;;;;;;;;;5071881;28;20052;-72
2022/02/07 11:32:48;;;;;;;0.30;0.20;;;;;;;;;;5076870;28;20020;-72
2022/02/07 11:35:15;;;;;;;0.10;0.00;;;;;;;;;;5072496;28;20422;-71
2022/02/07 11:37:42;;;;;;;0.08;0.08;;;;;;;;;;5072155;28;20120;-71
2022/02/07 11:40:27;;;;;;;0.73;0.30;;;;;;;;;;5072038;28;20030;-65
2022/02/07 11:43:12;;;;;;;0.10;0.10;;;;;;;;;;5067753;28;20032;-72
2022/02/07 11:45:56;;;;;;;0.40;0.20;;;;;;;;;;5069245;28;20024;-72
2022/02/07 11:48:41;;;;;;;3.05;0.20;;;;;;;;;;5070518;28;20028;-71
2022/02/07 11:51:10;;;;;;;0.68;0.10;;;;;;;;;;5070236;28;20024;-67
2022/02/07 11:53:44;;;;;;;0.63;0.30;;;;;;;;;;5054734;28;20067;-65
2022/02/07 11:56:27;;;;;;;0.60;0.10;;;;;;;;;;5056731;28;20029;-69
2022/02/07 11:58:56;;;;;;;0.77;0.15;;;;;;;;;;5056363;28;20563;-67
2022/02/07 12:01:24;;;;;;;0.35;0.20;;;;;;;;;;5057390;28;20048;-69
2022/02/07 12:03:54;;;;;;;1.55;0.30;;;;;;;;;;5055815;28;20021;-67
2022/02/07 12:06:24;;;;;;;0.45;0.20;;;;;;;;;;5067762;28;20026;-72
2022/02/07 12:08:50;;;;;;;0.10;0.10;;;;;;;;;;5058161;28;20028;-70
2022/02/07 12:11:16;;;;;;;0.40;0.10;;;;;;;;;;5056009;28;20024;-68
2022/02/07 12:13:43;;;;;;;0.30;0.20;;;;;;;;;;5056684;28;20039;-69
2022/02/07 12:16:19;;;;;;;0.40;0.20;;;;;;;;;;5056587;28;20029;-69
2022/02/07 12:19:04;;;;;;;0.43;0.20;;;;;;;;;;5057403;28;20036;-69
2022/02/07 12:21:30;;;;;;;1.35;0.38;;;;;;;;;;5055171;28;20048;-73
2022/02/07 12:23:57;;;;;;;2.10;0.43;;;;;;;;;;5050784;28;20682;-71
2022/02/07 12:26:24;;;;;;;1.48;0.57;;;;;;;;;;5059290;28;20055;-72
2022/02/07 12:28:56;;;;;;;0.55;0.30;;;;;;;;;;5055553;28;20152;-72
2022/02/07 12:31:23;;;;;;;0.70;0.28;;;;;;;;;;5056712;28;20035;-71
2022/02/07 12:34:12;;;;;;;0.65;0.17;;;;;;;;;;5056512;28;20025;-72
2022/02/07 12:36:39;;;;;;;2.00;0.10;;;;;;;;;;5056262;28;20028;-71
2022/02/07 12:39:07;;;;;;;2.20;0.20;;;;;;;;;;5071789;28;20526;-69
2022/02/07 12:41:33;;;;;;;0.65;0.20;;;;;;;;;;5054576;28;20138;-69
2022/02/07 12:44:00;;;;;;;0.43;0.22;;;;;;;;;;5070397;28;20047;-69
2022/02/07 12:46:27;;;;;;;3.60;0.63;;;;;;;;;;5069733;28;20021;-70
2022/02/07 12:48:58;;;;;;;0.63;0.30;;;;;;;;;;5069861;28;20028;-70
2022/02/07 12:51:26;;;;;;;1.92;0.20;;;;;;;;;;5066859;28;20025;-70
2022/02/07 12:53:53;;;;;;;0.45;0.20;;;;;;;;;;5053590;28;20025;-70
2022/02/07 12:56:19;;;;;;;0.57;0.20;;;;;;;;;;5067255;28;20028;-71
2022/02/07 12:58:46;;;;;;;0.55;0.20;;;;;;;;;;5061307;28;20017;-70
2022/02/07 13:01:20;;;;;;;0.68;0.30;;;;;;;;;;5068015;28;20395;-70
2022/02/07 13:03:53;;;;;;;0.22;0.13;;;;;;;;;;5074803;28;20033;-71
2022/02/07 13:06:27;;;;;;;0.65;0.20;;;;;;;;;;5051584;28;20025;-70
2022/02/07 13:08:54;;;;;;;0.82;0.20;;;;;;;;;;5069003;28;20103;-70
2022/02/07 13:11:24;;;;;;;1.48;0.20;;;;;;;;;;5085419;28;20023;-70
2022/02/07 13:13:51;;;;;;;0.60;0.20;;;;;;;;;;5083692;28;20024;-69
2022/02/07 13:16:17;;;;;;;0.17;0.10;;;;;;;;;;5083241;28;20020;-70
2022/02/07 13:18:43;;;;;;;1.38;0.30;;;;;;;;;;5080610;28;20444;-69
2022/02/07 13:21:13;;;;;;;0.80;0.28;;;;;;;;;;5082788;28;20095;-70
2022/02/07 13:23:41;;;;;;;1.58;0.20;;;;;;;;;;5088003;28;20035;-70
2022/02/07 13:26:09;;;;;;;0.90;0.30;;;;;;;;;;5086613;28;20052;-70
2022/02/07 13:28:40;;;;;;;0.43;0.22;;;;;;;;;;5080966;28;20028;-70
2022/02/07 13:31:07;;;;;;;0.75;0.17;;;;;;;;;;5083281;28;20039;-69
2022/02/07 13:34:05;;;;;;;0.55;0.20;;;;;;;;;;5083339;28;20024;-70
2022/02/07 13:36:42;;;;;;;1.17;0.10;;;;;;;;;;5048991;28;20054;-70
2022/02/07 13:39:08;;;;;;;0.10;0.10;;;;;;;;;;5083017;28;20094;-69
2022/02/07 13:41:34;;;;;;;0.65;0.17;;;;;;;;;;5088757;28;20042;-69
2022/02/07 13:44:01;;;;;;;0.10;0.10;;;;;;;;;;5086752;28;20437;-69
2022/02/07 13:46:29;;;;;;;0.43;0.10;;;;;;;;;;5083236;28;20484;-68
2022/02/07 13:48:56;;;;;;;0.08;0.00;;;;;;;;;;5082264;28;20027;-70
2022/02/07 13:51:22;;;;;;;0.35;0.25;;;;;;;;;;5081883;28;20020;-70
2022/02/07 13:53:48;;;;;;;2.20;0.20;;;;;;;;;;5086205;28;20031;-69
2022/02/07 13:56:14;;;;;;;1.13;0.20;;;;;;;;;;5087992;28;20024;-69
2022/02/07 13:58:42;;;;;;;0.30;0.20;;;;;;;;;;5082855;28;20034;-70
2022/02/07 14:01:09;;;;;;;0.65;0.20;;;;;;;;;;5082097;28;20046;-69
2022/02/07 14:03:42;;;;;;;0.15;0.10;;;;;;;;;;5083941;28;20015;-69
2022/02/07 14:06:12;;;;;;;0.73;0.20;;;;;;;;;;5082567;28;20025;-69
2022/02/07 14:08:49;;;;;;;1.77;0.20;;;;;;;;;;5088042;28;20020;-69
2022/02/07 14:11:21;;;;;;;0.30;0.20;;;;;;;;;;5087187;28;20043;-70
2022/02/07 14:13:49;;;;;;;0.40;0.20;;;;;;;;;;5082238;28;20024;-69
2022/02/07 14:16:15;;;;;;;0.20;0.20;;;;;;;;;;5082738;28;20036;-69
2022/02/07 14:18:46;;;;;;;0.30;0.20;;;;;;;;;;5078420;28;20510;-69
2022/02/07 14:21:12;;;;;;;0.47;0.20;;;;;;;;;;5080217;28;20047;-70
2022/02/07 14:23:39;;;;;;;0.35;0.20;;;;;;;;;;5087135;28;20493;-70
2022/02/07 14:26:06;;;;;;;0.17;0.10;;;;;;;;;;5073034;28;20028;-70
2022/02/07 14:28:32;;;;;;;0.45;0.20;;;;;;;;;;5079532;28;20028;-70
2022/02/07 14:30:59;;;;;;;0.98;0.30;;;;;;;;;;5081897;28;20030;-70
2022/02/07 14:33:25;;;;;;;0.20;0.10;;;;;;;;;;5082218;28;20089;-71
2022/02/07 14:35:51;;;;;;;0.38;0.13;;;;;;;;;;5084902;28;20432;-70
2022/02/07 14:38:18;;;;;;;0.52;0.05;;;;;;;;;;5088047;28;20069;-70
2022/02/07 14:40:44;;;;;;;0.35;0.05;;;;;;;;;;5082220;28;20020;-69
2022/02/07 14:43:17;;;;;;;0.63;0.20;;;;;;;;;;5082012;28;20024;-70
2022/02/07 14:45:54;;;;;;;1.00;0.10;;;;;;;;;;5082266;28;20017;-70
2022/02/07 14:48:20;;;;;;;0.05;0.00;;;;;;;;;;5082385;28;20526;-69
2022/02/07 14:50:46;;;;;;;1.20;0.22;;;;;;;;;;5084220;28;20456;-70
2022/02/07 14:53:13;;;;;;;0.43;0.10;;;;;;;;;;5086510;28;20103;-69
2022/02/07 14:55:40;;;;;;;0.52;0.17;;;;;;;;;;5082054;28;20024;-69
2022/02/07 14:58:06;;;;;;;1.08;0.25;;;;;;;;;;5082678;28;20028;-69
2022/02/07 15:00:32;;;;;;;1.77;0.20;;;;;;;;;;5081876;28;20039;-70
2022/02/07 15:02:59;;;;;;;0.32;0.20;;;;;;;;;;5082506;28;20073;-71
2022/02/07 15:05:29;;;;;;;0.93;0.17;;;;;;;;;;5094039;28;20459;-70
2022/02/07 15:07:55;;;;;;;0.60;0.30;;;;;;;;;;5091989;28;20036;-70
2022/02/07 15:10:22;;;;;;;0.70;0.20;;;;;;;;;;5081607;28;20016;-69
2022/02/07 15:12:49;;;;;;;0.00;0.00;;;;;;;;;;5087148;28;20390;-68
2022/02/07 15:15:16;;;;;;;0.10;0.10;;;;;;;;;;5083702;28;20096;-69
2022/02/07 15:17:42;;;;;;;0.30;0.20;;;;;;;;;;5090390;28;20032;-69
2022/02/07 15:20:09;;;;;;;0.35;0.22;;;;;;;;;;5084684;28;20114;-68
2022/02/07 15:22:36;;;;;;;0.32;0.20;;;;;;;;;;5085253;28;20123;-68
2022/02/07 15:25:03;;;;;;;0.35;0.00;;;;;;;;;;5086988;28;20031;-69
2022/02/07 15:27:29;;;;;;;0.05;0.00;;;;;;;;;;5085810;28;20107;-69
2022/02/07 15:29:58;;;;;;;0.10;0.10;;;;;;;;;;5086370;28;20028;-68
2022/02/07 15:32:28;;;;;;;0.32;0.05;;;;;;;;;;5091419;28;20493;-69
2022/02/07 15:34:55;;;;;;;0.20;0.10;;;;;;;;;;5085998;28;20035;-68
2022/02/07 15:37:22;;;;;;;0.57;0.10;;;;;;;;;;5085203;28;20387;-69
2022/02/07 15:39:48;;;;;;;0.73;0.22;;;;;;;;;;5085411;28;20016;-66
2022/02/07 15:42:14;;;;;;;0.30;0.30;;;;;;;;;;5086235;28;20113;-69
2022/02/07 15:44:40;;;;;;;1.02;0.10;;;;;;;;;;5088401;28;20438;-70
2022/02/07 15:47:06;;;;;;;2.92;0.30;;;;;;;;;;5089161;28;20024;-70
2022/02/07 15:49:33;;;;;;;1.10;0.40;;;;;;;;;;5086959;28;20027;-70
2022/02/07 15:52:00;;;;;;;0.30;0.10;;;;;;;;;;5085000;28;20534;-69
2022/02/07 15:54:27;;;;;;;0.57;0.20;;;;;;;;;;5084913;28;20042;-70
2022/02/07 15:56:53;;;;;;;1.77;0.20;;;;;;;;;;5085552;28;20108;-70
2022/02/07 15:59:19;;;;;;;0.10;0.10;;;;;;;;;;5091504;28;20035;-70
2022/02/07 16:01:48;;;;;;;0.60;0.20;;;;;;;;;;5084670;28;20040;-70
2022/02/07 16:04:14;;;;;;;0.20;0.20;;;;;;;;;;5081753;28;20029;-70
2022/02/07 16:06:40;;;;;;;0.22;0.17;;;;;;;;;;5074154;28;20035;-70
2022/02/07 16:09:06;;;;;;;0.10;0.10;;;;;;;;;;5083180;28;20511;-70
2022/02/07 16:11:35;;;;;;;1.17;0.20;;;;;;;;;;5091781;28;20024;-70
2022/02/07 16:14:01;;;;;;;1.98;0.50;;;;;;;;;;5087236;28;20021;-70
2022/02/07 16:16:30;;;;;;;2.45;0.20;;;;;;;;;;5084247;28;20035;-70
2022/02/07 16:18:59;;;;;;;0.95;0.70;;;;;;;;;;5078103;28;20386;-70
2022/02/07 16:21:25;;;;;;;1.00;0.43;;;;;;;;;;5084251;28;20040;-70
2022/02/07 16:23:51;;;;;;;0.38;0.20;;;;;;;;;;5086917;28;20024;-70
2022/02/07 16:26:17;;;;;;;1.48;0.20;;;;;;;;;;5087778;28;20143;-70
2022/02/07 16:28:46;;;;;;;0.57;0.15;;;;;;;;;;5072357;28;20074;-70
2022/02/07 16:31:12;;;;;;;0.20;0.13;;;;;;;;;;5075039;28;20114;-70
2022/02/07 16:33:38;;;;;;;0.10;0.10;;;;;;;;;;5079192;28;20127;-70
2022/02/07 16:36:05;;;;;;;0.43;0.20;;;;;;;;;;5073981;28;20108;-65
2022/02/07 16:38:32;;;;;;;0.35;0.20;;;;;;;;;;5073879;28;20017;-66
2022/02/07 16:40:57;;;;;;;1.05;0.30;;;;;;;;;;5073555;28;20071;-65
2022/02/07 16:43:28;;;;;;;0.65;0.40;;;;;;;;;;5060634;28;20039;-65
2022/02/07 16:48:20;;;;;;;0.10;0.10;;;;;;;;;;5053818;28;20045;-65
2022/02/07 16:50:46;;;;;;;0.60;0.30;;;;;;;;;;5066780;28;20024;-65
2022/02/07 16:53:12;;;;;;;0.40;0.20;;;;;;;;;;5068426;28;20029;-67
2022/02/07 16:55:39;;;;;;;0.85;0.30;;;;;;;;;;5066884;28;20031;-65
2022/02/07 16:58:05;;;;;;;0.65;0.30;;;;;;;;;;5067307;28;20078;-64
2022/02/07 17:00:31;;;;;;;2.75;0.28;;;;;;;;;;5072279;28;20021;-64
2022/02/07 17:02:57;;;;;;;0.25;0.25;;;;;;;;;;5065749;28;20048;-64
2022/02/07 17:05:23;;;;;;;0.20;0.10;;;;;;;;;;5069005;28;20105;-64
2022/02/07 17:07:49;;;;;;;0.65;0.20;;;;;;;;;;5067946;28;20040;-65
2022/02/07 17:10:22;;;;;;;0.43;0.25;;;;;;;;;;5068348;28;20019;-65